Time;durP1;ratioP1;P1;durP2;ratioP2;P2;SDS_P1;SDS_P2;PMS_P1;PMS_P2;Temp;Humidity;BMP_temperature;BMP_pressure;BME280_temperature;BME280_humidity;BME280_pressure;Samples;Min_cycle;Max_cycle;Signal;HPM_P1;HPM_P2
2023/03/08 00:01:14;;;;;;;1.13;0.22;;;16.10;1.00;;;;;;5072640;28;20380;-39
2023/03/08 00:03:41;;;;;;;0.88;0.30;;;16.10;1.00;;;;;;5071876;28;20040;-38
2023/03/08 00:06:13;;;;;;;0.85;0.20;;;16.00;1.00;;;;;;5072478;28;20105;-39
2023/03/08 00:08:40;;;;;;;0.95;0.20;;;16.00;1.00;;;;;;5072188;28;20502;-39
2023/03/08 00:11:09;;;;;;;1.08;0.20;;;16.00;1.00;;;;;;5072514;28;20063;-39
2023/03/08 00:13:36;;;;;;;1.08;0.00;;;15.90;1.00;;;;;;5071643;28;20048;-39
2023/03/08 00:16:06;;;;;;;0.50;0.10;;;15.90;1.00;;;;;;5072836;28;20028;-38
2023/03/08 00:18:34;;;;;;;0.93;0.15;;;15.90;1.00;;;;;;5072266;28;20086;-38
2023/03/08 00:21:07;;;;;;;2.58;0.20;;;15.90;1.00;;;;;;5072301;28;20040;-38
2023/03/08 00:23:34;;;;;;;0.75;0.40;;;15.80;1.00;;;;;;5071548;28;20098;-38
2023/03/08 00:26:01;;;;;;;2.10;0.40;;;15.80;1.00;;;;;;5072294;28;20041;-39
2023/03/08 00:28:29;;;;;;;0.60;0.28;;;15.80;1.00;;;;;;5083344;22;20305;-35
2023/03/08 00:31:03;;;;;;;0.75;0.35;;;15.80;1.00;;;;;;5054176;28;20049;-35
2023/03/08 00:33:31;;;;;;;1.05;0.30;;;15.70;1.00;;;;;;5051284;28;20072;-36
2023/03/08 00:36:05;;;;;;;1.27;0.35;;;15.70;1.00;;;;;;5034318;28;20037;-36
2023/03/08 00:38:34;;;;;;;0.80;0.20;;;15.70;1.00;;;;;;5057332;28;20036;-36
2023/03/08 00:41:01;;;;;;;0.35;0.10;;;15.70;1.00;;;;;;5072036;28;20119;-36
2023/03/08 00:43:31;;;;;;;3.30;0.30;;;15.60;1.00;;;;;;5053241;28;20063;-36
2023/03/08 00:45:58;;;;;;;1.08;0.30;;;15.60;1.00;;;;;;5072010;28;20047;-36
2023/03/08 00:48:25;;;;;;;1.58;0.40;;;15.60;1.00;;;;;;5053640;28;20082;-36
2023/03/08 00:50:52;;;;;;;0.95;0.32;;;15.60;1.00;;;;;;5071914;28;20458;-36
2023/03/08 00:53:19;;;;;;;3.45;0.17;;;15.50;1.00;;;;;;5052993;28;20102;-36
2023/03/08 00:55:50;;;;;;;0.68;0.10;;;15.50;1.00;;;;;;5071857;28;20377;-36
2023/03/08 00:58:17;;;;;;;1.75;0.10;;;15.50;1.00;;;;;;5053511;28;20049;-36
2023/03/08 01:00:45;;;;;;;0.38;0.10;;;15.50;1.00;;;;;;5053995;28;20070;-35
2023/03/08 01:03:12;;;;;;;0.50;0.10;;;15.50;1.00;;;;;;5052877;28;20135;-35
2023/03/08 01:05:57;;;;;;;0.30;0.10;;;15.50;1.00;;;;;;5071717;28;20511;-36
2023/03/08 01:08:25;;;;;;;2.05;0.50;;;15.40;1.00;;;;;;5053677;28;20082;-35
2023/03/08 01:10:58;;;;;;;0.90;0.28;;;15.40;1.00;;;;;;5053765;28;20049;-35
2023/03/08 01:13:27;;;;;;;1.17;0.20;;;15.40;1.00;;;;;;5070866;28;20036;-35
2023/03/08 01:15:54;;;;;;;0.63;0.28;;;15.40;1.00;;;;;;5071634;28;20090;-35
2023/03/08 01:18:21;;;;;;;0.90;0.10;;;15.30;1.00;;;;;;5071443;28;20546;-35
2023/03/08 01:21:01;;;;;;;0.22;0.22;;;15.30;1.00;;;;;;5055037;28;20074;-35
2023/03/08 01:23:29;;;;;;;0.50;0.10;;;15.30;1.00;;;;;;5056911;28;20123;-36
2023/03/08 01:26:05;;;;;;;0.50;0.10;;;15.30;1.00;;;;;;5057560;28;20036;-36
2023/03/08 01:28:33;;;;;;;1.23;0.32;;;15.30;1.00;;;;;;5075367;28;20484;-36
2023/03/08 01:31:05;;;;;;;0.40;0.13;;;15.20;1.00;;;;;;5057610;28;20040;-36
2023/03/08 01:33:33;;;;;;;0.38;0.10;;;15.20;1.00;;;;;;5056777;28;20072;-35
2023/03/08 01:36:09;;;;;;;0.40;0.10;;;15.20;1.00;;;;;;5075410;28;20060;-36
2023/03/08 01:38:36;;;;;;;0.85;0.10;;;15.20;1.00;;;;;;5075613;28;20473;-36
2023/03/08 01:41:05;;;;;;;0.63;0.10;;;15.20;1.00;;;;;;5057111;28;20041;-40
2023/03/08 01:43:37;;;;;;;1.13;0.13;;;15.20;1.00;;;;;;5056558;28;20052;-36
2023/03/08 01:46:09;;;;;;;0.20;0.10;;;15.10;1.00;;;;;;5057332;28;20040;-36
2023/03/08 01:48:49;;;;;;;0.45;0.20;;;15.10;1.00;;;;;;5057233;28;20127;-36
2023/03/08 01:51:39;;;;;;;1.13;0.15;;;15.10;1.00;;;;;;5057206;28;20044;-36
2023/03/08 01:54:22;;;;;;;1.52;0.20;;;15.10;1.00;;;;;;5056291;28;20048;-36
2023/03/08 01:56:52;;;;;;;0.73;0.20;;;15.00;1.00;;;;;;5075296;28;20462;-35
2023/03/08 01:59:21;;;;;;;0.77;0.20;;;15.00;1.00;;;;;;5056899;28;20503;-36
2023/03/08 02:01:48;;;;;;;1.13;0.10;;;15.00;1.00;;;;;;5074930;28;20404;-35
2023/03/08 02:04:16;;;;;;;0.85;0.30;;;15.00;1.00;;;;;;5056022;28;20542;-36
2023/03/08 02:06:44;;;;;;;0.70;0.15;;;15.00;1.00;;;;;;5056908;28;20045;-35
2023/03/08 02:09:13;;;;;;;0.30;0.10;;;14.90;1.00;;;;;;5074776;28;20041;-35
2023/03/08 02:11:41;;;;;;;0.43;0.10;;;14.90;1.00;;;;;;5074971;28;20045;-36
2023/03/08 02:14:08;;;;;;;0.60;0.25;;;14.90;1.00;;;;;;5055855;28;20040;-36
2023/03/08 02:16:37;;;;;;;0.52;0.10;;;14.90;1.00;;;;;;5056454;28;20045;-36
2023/03/08 02:19:11;;;;;;;1.08;0.20;;;14.80;1.00;;;;;;5056633;28;20075;-36
2023/03/08 02:21:38;;;;;;;0.65;0.20;;;14.90;1.00;;;;;;5056499;28;20048;-36
2023/03/08 02:24:17;;;;;;;0.35;0.10;;;14.80;1.00;;;;;;5055805;28;20052;-36
2023/03/08 02:26:45;;;;;;;0.15;0.00;;;14.80;1.00;;;;;;5056467;28;20056;-35
2023/03/08 02:29:12;;;;;;;0.60;0.10;;;14.80;1.00;;;;;;5074236;28;20051;-35
2023/03/08 02:31:39;;;;;;;0.75;0.15;;;14.80;1.00;;;;;;5056091;28;20102;-35
2023/03/08 02:34:07;;;;;;;0.82;0.03;;;14.80;1.00;;;;;;5055834;28;20106;-34
2023/03/08 02:36:34;;;;;;;0.52;0.25;;;14.70;1.00;;;;;;5056307;28;20041;-36
2023/03/08 02:39:01;;;;;;;1.05;0.10;;;14.70;1.00;;;;;;5056221;28;20045;-36
2023/03/08 02:41:28;;;;;;;0.60;0.20;;;14.70;1.00;;;;;;5074130;28;20045;-34
2023/03/08 02:43:54;;;;;;;1.45;0.10;;;14.70;1.00;;;;;;5073365;28;20135;-35
2023/03/08 02:46:21;;;;;;;0.15;0.03;;;14.70;1.00;;;;;;5074078;28;20107;-35
2023/03/08 02:48:51;;;;;;;0.55;0.00;;;14.70;1.00;;;;;;5056028;28;20044;-35
2023/03/08 02:51:19;;;;;;;1.65;0.30;;;14.60;1.00;;;;;;5056093;28;20507;-35
2023/03/08 02:53:46;;;;;;;0.10;0.00;;;14.70;1.00;;;;;;5073188;28;20046;-35
2023/03/08 02:56:13;;;;;;;1.63;0.30;;;14.60;1.00;;;;;;5073761;28;20492;-35
2023/03/08 02:58:39;;;;;;;0.95;0.10;;;14.60;1.00;;;;;;5055794;28;20064;-35
2023/03/08 03:01:12;;;;;;;0.50;0.13;;;14.60;1.00;;;;;;5068146;28;20047;-35
2023/03/08 03:03:40;;;;;;;0.93;0.20;;;14.60;1.00;;;;;;5073251;28;20553;-35
2023/03/08 03:06:18;;;;;;;0.32;0.10;;;14.60;1.00;;;;;;5072329;28;20047;-36
2023/03/08 03:08:48;;;;;;;0.15;0.00;;;14.60;1.00;;;;;;5072124;28;20041;-36
2023/03/08 03:11:19;;;;;;;0.93;0.10;;;14.50;1.00;;;;;;5072309;28;20442;-36
2023/03/08 03:13:56;;;;;;;1.55;0.17;;;14.50;1.00;;;;;;5073037;28;20125;-36
2023/03/08 03:16:27;;;;;;;1.77;0.30;;;14.50;1.00;;;;;;5072190;28;20052;-35
2023/03/08 03:18:55;;;;;;;0.15;0.00;;;14.50;1.00;;;;;;5073366;28;20038;-35
2023/03/08 03:21:23;;;;;;;1.25;0.17;;;14.50;1.00;;;;;;5072087;28;20040;-35
2023/03/08 03:23:49;;;;;;;1.83;0.25;;;14.40;1.00;;;;;;5071435;28;20127;-35
2023/03/08 03:26:22;;;;;;;1.17;0.15;;;14.40;1.00;;;;;;5072072;28;20048;-35
2023/03/08 03:28:55;;;;;;;0.30;0.10;;;14.40;1.00;;;;;;5071893;28;20048;-35
2023/03/08 03:31:26;;;;;;;0.20;0.08;;;14.40;1.00;;;;;;5071862;28;20163;-35
2023/03/08 03:33:53;;;;;;;0.52;0.10;;;14.40;1.00;;;;;;5071328;28;20075;-35
2023/03/08 03:36:23;;;;;;;1.98;0.10;;;14.40;1.00;;;;;;5071914;28;20040;-35
2023/03/08 03:38:50;;;;;;;0.98;0.00;;;14.40;1.00;;;;;;5071683;28;20040;-36
2023/03/08 03:41:20;;;;;;;1.38;0.45;;;14.30;1.00;;;;;;5072037;28;20326;-35
2023/03/08 03:43:51;;;;;;;;;;;14.30;1.00;;;;;;5070924;28;20037;-36
2023/03/08 03:46:19;;;;;;;0.75;0.08;;;14.30;1.00;;;;;;5071522;28;20273;-35
2023/03/08 03:48:50;;;;;;;0.30;0.10;;;14.30;1.00;;;;;;5073068;28;20049;-35
2023/03/08 03:51:20;;;;;;;0.50;0.10;;;14.30;1.00;;;;;;5071532;28;20491;-35
2023/03/08 03:53:53;;;;;;;0.20;0.08;;;14.20;1.00;;;;;;5070725;28;20048;-35
2023/03/08 03:56:25;;;;;;;0.45;0.10;;;14.20;1.00;;;;;;5071507;28;20140;-35
2023/03/08 03:58:56;;;;;;;1.17;0.17;;;14.20;1.00;;;;;;5071061;28;20044;-35
2023/03/08 04:01:26;;;;;;;0.30;0.10;;;14.20;1.00;;;;;;5071447;28;20059;-35
2023/03/08 04:03:59;;;;;;;0.20;0.10;;;14.20;1.00;;;;;;5070527;28;20523;-35
2023/03/08 04:06:29;;;;;;;0.98;0.32;;;14.20;1.00;;;;;;5071394;28;20118;-35
2023/03/08 04:09:04;;;;;;;0.50;0.10;;;14.20;1.00;;;;;;5071145;28;20048;-35
2023/03/08 04:11:37;;;;;;;0.70;0.20;;;14.20;1.00;;;;;;5071252;28;20050;-35
2023/03/08 04:14:08;;;;;;;1.00;0.38;;;14.10;1.00;;;;;;5070266;28;20040;-35
2023/03/08 04:16:36;;;;;;;0.70;0.20;;;14.10;1.00;;;;;;5071110;28;20448;-35
2023/03/08 04:19:11;;;;;;;0.73;0.25;;;14.10;1.00;;;;;;5070963;28;20086;-35
2023/03/08 04:21:43;;;;;;;0.68;0.08;;;14.10;1.00;;;;;;5071062;28;20068;-35
2023/03/08 04:24:10;;;;;;;1.73;0.38;;;14.10;1.00;;;;;;5070246;28;20067;-35
2023/03/08 04:26:37;;;;;;;1.17;0.20;;;14.10;1.00;;;;;;5070854;28;20106;-35
2023/03/08 04:29:05;;;;;;;0.77;0.22;;;14.10;1.00;;;;;;5070603;28;20041;-36
2023/03/08 04:31:34;;;;;;;0.80;0.22;;;14.00;1.00;;;;;;5072214;28;20037;-36
2023/03/08 04:34:05;;;;;;;0.77;0.47;;;14.00;1.00;;;;;;5069944;28;20055;-36
2023/03/08 04:36:32;;;;;;;1.40;0.10;;;14.00;1.00;;;;;;5070732;28;20141;-36
2023/03/08 04:38:59;;;;;;;0.35;0.10;;;14.00;1.00;;;;;;5070737;28;20500;-36
2023/03/08 04:41:26;;;;;;;0.40;0.20;;;14.00;1.00;;;;;;5070720;28;20499;-36
2023/03/08 04:44:01;;;;;;;1.40;0.30;;;14.00;1.00;;;;;;5070046;28;20044;-35
2023/03/08 04:46:37;;;;;;;0.88;0.15;;;14.00;1.00;;;;;;5070557;28;20215;-35
2023/03/08 04:49:04;;;;;;;2.25;0.40;;;14.00;1.00;;;;;;5071969;28;20123;-36
2023/03/08 04:51:37;;;;;;;0.60;0.22;;;14.00;1.00;;;;;;5070592;28;20074;-36
2023/03/08 04:54:06;;;;;;;1.33;0.20;;;14.00;1.00;;;;;;5069869;28;20071;-36
2023/03/08 04:56:37;;;;;;;0.63;0.20;;;14.00;1.00;;;;;;5070551;28;20515;-36
2023/03/08 04:59:04;;;;;;;0.50;0.20;;;14.10;1.00;;;;;;5070330;28;20045;-35
2023/03/08 05:01:31;;;;;;;0.95;0.30;;;14.20;1.00;;;;;;5071835;28;20044;-35
2023/03/08 05:03:58;;;;;;;0.45;0.10;;;14.30;1.00;;;;;;5069656;28;20055;-35
2023/03/08 05:06:32;;;;;;;2.03;0.15;;;14.40;1.00;;;;;;5070591;28;20490;-36
2023/03/08 05:08:59;;;;;;;0.45;0.10;;;14.50;1.00;;;;;;5056873;28;20488;-35
2023/03/08 05:11:28;;;;;;;2.17;0.30;;;14.60;1.00;;;;;;5058690;28;20052;-35
2023/03/08 05:13:57;;;;;;;0.52;0.15;;;14.80;1.00;;;;;;5061137;28;20067;-35
2023/03/08 05:16:26;;;;;;;2.33;0.45;;;14.90;1.00;;;;;;5065174;28;20044;-36
2023/03/08 05:18:53;;;;;;;0.75;0.20;;;14.90;1.00;;;;;;5070174;28;20055;-35
2023/03/08 05:21:24;;;;;;;0.77;0.25;;;15.10;1.00;;;;;;5070401;28;20041;-35
2023/03/08 05:23:59;;;;;;;1.13;0.28;;;15.20;1.00;;;;;;5069371;28;20043;-35
2023/03/08 05:26:28;;;;;;;1.73;0.25;;;15.20;1.00;;;;;;5055164;28;20148;-35
2023/03/08 05:28:55;;;;;;;2.42;0.50;;;15.30;1.00;;;;;;5070039;28;20076;-34
2023/03/08 05:31:27;;;;;;;0.95;0.10;;;15.40;1.00;;;;;;5070314;28;20067;-35
2023/03/08 05:33:56;;;;;;;1.30;0.30;;;15.40;1.00;;;;;;5069508;28;20427;-35
2023/03/08 05:36:33;;;;;;;1.75;0.30;;;15.40;1.00;;;;;;5070015;28;20029;-36
2023/03/08 05:39:01;;;;;;;1.20;0.20;;;15.50;1.00;;;;;;5069486;28;20454;-36
2023/03/08 05:41:37;;;;;;;1.10;0.30;;;15.50;1.00;;;;;;5071528;28;20120;-36
2023/03/08 05:44:05;;;;;;;0.77;0.35;;;15.50;1.00;;;;;;5069459;28;20040;-36
2023/03/08 05:46:33;;;;;;;2.78;0.57;;;15.50;1.00;;;;;;5070119;28;20041;-36
2023/03/08 05:49:02;;;;;;;0.70;0.13;;;15.50;1.00;;;;;;5071193;28;20040;-36
2023/03/08 05:51:32;;;;;;;0.88;0.30;;;15.50;1.00;;;;;;5070160;28;20048;-36
2023/03/08 05:53:59;;;;;;;0.93;0.20;;;15.50;1.00;;;;;;5069362;28;20052;-36
2023/03/08 05:56:27;;;;;;;1.23;0.30;;;15.50;1.00;;;;;;5063054;28;20136;-36
2023/03/08 05:59:05;;;;;;;0.60;0.20;;;15.50;1.00;;;;;;5068441;28;20415;-34
2023/03/08 06:01:32;;;;;;;0.90;0.20;;;15.50;1.00;;;;;;5064200;28;20060;-34
2023/03/08 06:04:08;;;;;;;1.95;0.30;;;15.40;1.00;;;;;;5068766;28;20041;-34
2023/03/08 06:06:38;;;;;;;1.38;0.30;;;15.40;1.00;;;;;;5070798;28;20056;-35
2023/03/08 06:09:06;;;;;;;1.92;0.40;;;15.40;1.00;;;;;;5073595;28;20139;-35
2023/03/08 06:11:36;;;;;;;0.80;0.22;;;15.40;1.00;;;;;;5073396;28;20044;-36
2023/03/08 06:14:08;;;;;;;1.08;0.30;;;15.40;1.00;;;;;;5072558;28;20143;-35
2023/03/08 06:16:38;;;;;;;1.50;0.20;;;15.40;1.00;;;;;;5072695;28;20522;-35
2023/03/08 06:19:06;;;;;;;2.25;0.40;;;15.30;1.00;;;;;;5071772;28;20500;-35
2023/03/08 06:21:34;;;;;;;1.58;0.38;;;15.30;1.00;;;;;;5057465;28;20048;-35
2023/03/08 06:24:03;;;;;;;1.40;0.28;;;15.30;1.00;;;;;;5063372;28;20114;-35
2023/03/08 06:26:30;;;;;;;0.35;0.13;;;15.30;1.00;;;;;;5074256;28;20041;-35
2023/03/08 06:28:57;;;;;;;1.27;0.17;;;15.20;1.00;;;;;;5083591;22;20045;-37
2023/03/08 06:31:27;;;;;;;1.70;0.30;;;15.20;1.00;;;;;;5065236;28;20044;-37
2023/03/08 06:33:55;;;;;;;2.50;0.38;;;15.20;1.00;;;;;;5055570;28;20139;-39
2023/03/08 06:36:24;;;;;;;1.75;0.10;;;15.20;1.00;;;;;;5056229;28;20569;-39
2023/03/08 06:38:51;;;;;;;0.90;0.20;;;15.10;1.00;;;;;;5073937;28;20037;-39
2023/03/08 06:41:19;;;;;;;1.65;0.30;;;15.10;1.00;;;;;;5074185;28;20238;-39
2023/03/08 06:43:50;;;;;;;0.77;0.50;;;15.10;1.00;;;;;;5055309;28;20395;-39
2023/03/08 06:46:18;;;;;;;2.25;0.50;;;15.10;1.00;;;;;;5074134;28;20048;-39
2023/03/08 06:48:46;;;;;;;1.00;0.30;;;15.10;1.00;;;;;;5055846;28;20049;-39
2023/03/08 06:51:14;;;;;;;8.18;0.40;;;15.00;1.00;;;;;;5056061;28;20361;-39
2023/03/08 06:53:44;;;;;;;0.40;0.10;;;15.00;1.00;;;;;;5054911;28;20044;-39
2023/03/08 06:56:15;;;;;;;0.63;0.17;;;15.00;1.00;;;;;;5055867;28;20044;-39
2023/03/08 06:58:42;;;;;;;1.10;0.13;;;14.90;1.00;;;;;;5073652;28;20162;-39
2023/03/08 07:01:09;;;;;;;2.15;0.30;;;14.90;1.00;;;;;;5073828;28;20056;-39
2023/03/08 07:03:36;;;;;;;0.85;0.25;;;14.90;1.00;;;;;;5072961;28;20558;-39
2023/03/08 07:06:09;;;;;;;0.60;0.20;;;14.90;1.00;;;;;;5073579;28;20476;-39
2023/03/08 07:08:38;;;;;;;1.80;0.40;;;14.80;1.00;;;;;;5073665;28;20519;-39
2023/03/08 07:11:07;;;;;;;0.47;0.30;;;14.80;1.00;;;;;;5073561;28;20045;-39
2023/03/08 07:13:35;;;;;;;2.60;0.52;;;14.80;1.00;;;;;;5072761;28;20123;-39
2023/03/08 07:16:13;;;;;;;1.50;0.30;;;14.80;1.00;;;;;;5073429;28;20504;-39
2023/03/08 07:18:40;;;;;;;2.55;0.50;;;14.70;1.00;;;;;;5072243;28;20040;-39
2023/03/08 07:21:09;;;;;;;1.02;0.32;;;14.70;1.00;;;;;;5073451;28;20048;-39
2023/03/08 07:23:36;;;;;;;1.08;0.40;;;14.70;1.00;;;;;;5072566;28;20036;-39
2023/03/08 07:26:09;;;;;;;2.03;0.10;;;14.70;1.00;;;;;;5073168;28;20083;-39
2023/03/08 07:28:36;;;;;;;0.98;0.70;;;14.60;1.00;;;;;;5073059;28;20044;-39
2023/03/08 07:31:02;;;;;;;0.70;0.30;;;14.60;1.00;;;;;;5055022;28;20056;-39
2023/03/08 07:33:29;;;;;;;2.35;0.38;;;14.60;1.00;;;;;;5072413;28;20041;-39
2023/03/08 07:36:00;;;;;;;1.55;0.20;;;14.60;1.00;;;;;;5073076;28;20135;-39
2023/03/08 07:38:27;;;;;;;1.38;0.35;;;14.60;1.00;;;;;;5072934;28;20055;-39
2023/03/08 07:40:55;;;;;;;1.60;0.30;;;14.60;1.00;;;;;;5072947;28;20047;-39
2023/03/08 07:43:23;;;;;;;3.83;0.63;;;14.60;1.00;;;;;;5072588;28;20091;-39
2023/03/08 07:46:00;;;;;;;0.73;0.30;;;14.60;1.00;;;;;;5072993;28;20128;-39
2023/03/08 07:48:28;;;;;;;2.60;0.25;;;14.70;1.00;;;;;;5072653;28;20048;-39
2023/03/08 07:50:58;;;;;;;2.30;0.47;;;14.80;1.00;;;;;;5072824;28;20051;-39
2023/03/08 07:53:25;;;;;;;0.63;0.20;;;14.90;1.00;;;;;;5054225;28;20049;-39
2023/03/08 07:55:52;;;;;;;1.58;0.50;;;15.00;1.00;;;;;;5072501;28;20090;-39
2023/03/08 07:58:20;;;;;;;0.60;0.13;;;15.10;1.00;;;;;;5072430;28;20040;-41
2023/03/08 08:00:47;;;;;;;0.95;0.10;;;15.20;1.00;;;;;;5072725;28;20541;-39
2023/03/08 08:03:14;;;;;;;1.17;0.40;;;15.30;1.00;;;;;;5071699;28;20036;-39
2023/03/08 08:05:41;;;;;;;1.52;0.22;;;15.40;1.00;;;;;;5072499;28;20086;-39
2023/03/08 08:08:09;;;;;;;1.42;0.22;;;15.40;1.00;;;;;;5072403;28;20507;-39
2023/03/08 08:10:35;;;;;;;1.17;0.20;;;15.50;1.00;;;;;;5072267;28;20048;-40
2023/03/08 08:13:02;;;;;;;0.70;0.30;;;15.60;1.00;;;;;;5071540;28;20429;-39
2023/03/08 08:15:29;;;;;;;2.88;0.40;;;15.70;1.00;;;;;;5072351;28;20094;-39
2023/03/08 08:17:56;;;;;;;2.25;0.32;;;15.70;1.00;;;;;;5072282;28;20033;-39
2023/03/08 08:20:24;;;;;;;0.80;0.35;;;15.70;1.00;;;;;;5072198;28;20512;-39
2023/03/08 08:22:52;;;;;;;1.25;0.40;;;15.80;1.00;;;;;;5071271;28;20044;-39
2023/03/08 08:25:19;;;;;;;7.68;0.95;;;15.80;1.00;;;;;;5072247;28;20083;-39
2023/03/08 08:27:46;;;;;;;0.80;0.35;;;15.80;1.00;;;;;;5072031;28;20549;-39
2023/03/08 08:30:14;;;;;;;1.00;0.40;;;15.90;1.00;;;;;;5071738;28;20040;-39
2023/03/08 08:32:41;;;;;;;2.75;0.50;;;15.90;1.00;;;;;;5071328;28;20112;-39
2023/03/08 08:35:08;;;;;;;0.60;0.30;;;15.90;1.00;;;;;;5072067;28;20041;-39
2023/03/08 08:37:35;;;;;;;2.15;0.25;;;15.90;1.00;;;;;;5071909;28;20051;-39
2023/03/08 08:40:02;;;;;;;1.67;0.40;;;15.90;1.00;;;;;;5071907;28;20052;-39
2023/03/08 08:42:30;;;;;;;1.63;0.47;;;15.90;1.00;;;;;;5071614;28;20094;-39
2023/03/08 08:44:57;;;;;;;0.45;0.20;;;15.90;1.00;;;;;;5071489;28;20040;-39
2023/03/08 08:47:23;;;;;;;2.47;0.32;;;15.90;1.00;;;;;;5072062;28;20154;-39
2023/03/08 08:49:51;;;;;;;0.52;0.20;;;15.90;1.00;;;;;;5053735;28;20452;-39
2023/03/08 08:52:18;;;;;;;0.90;0.20;;;15.90;1.00;;;;;;5071208;28;20049;-39
2023/03/08 08:54:44;;;;;;;0.30;0.10;;;15.90;1.00;;;;;;5071372;28;20115;-39
2023/03/08 08:57:11;;;;;;;0.90;0.30;;;15.90;1.00;;;;;;5071578;28;20446;-39
2023/03/08 08:59:38;;;;;;;1.60;0.52;;;15.80;1.00;;;;;;5071379;28;20071;-38
2023/03/08 09:02:05;;;;;;;3.05;0.40;;;15.80;1.00;;;;;;5071684;28;20128;-39
2023/03/08 09:04:32;;;;;;;0.68;0.25;;;15.80;1.00;;;;;;5070563;28;20064;-39
2023/03/08 09:06:59;;;;;;;1.58;0.28;;;15.80;1.00;;;;;;5071514;28;20538;-39
2023/03/08 09:09:26;;;;;;;1.20;0.45;;;15.80;1.00;;;;;;5071637;28;20090;-39
2023/03/08 09:11:52;;;;;;;1.27;0.32;;;15.70;1.00;;;;;;5071576;28;20064;-39
2023/03/08 09:14:22;;;;;;;1.27;0.52;;;15.70;1.00;;;;;;5070991;28;20462;-37
2023/03/08 09:16:48;;;;;;;1.92;0.30;;;15.70;1.00;;;;;;5071520;28;20041;-39
2023/03/08 09:19:15;;;;;;;1.13;0.35;;;15.70;1.00;;;;;;5071461;28;20044;-39
2023/03/08 09:21:42;;;;;;;0.47;0.13;;;15.70;1.00;;;;;;5071521;28;20040;-39
2023/03/08 09:24:10;;;;;;;4.45;0.68;;;15.60;1.00;;;;;;5070846;28;20105;-39
2023/03/08 09:26:38;;;;;;;0.52;0.15;;;15.60;1.00;;;;;;5071566;28;20049;-39
2023/03/08 09:29:06;;;;;;;0.38;0.17;;;15.60;1.00;;;;;;5071246;28;20048;-39
2023/03/08 09:31:37;;;;;;;0.85;0.20;;;15.60;1.00;;;;;;5071502;28;20055;-39
2023/03/08 09:34:07;;;;;;;1.05;0.40;;;15.50;1.00;;;;;;5070588;28;20547;-39
2023/03/08 09:36:40;;;;;;;0.43;0.10;;;15.50;1.00;;;;;;5071306;28;20496;-39
2023/03/08 09:39:09;;;;;;;0.82;0.30;;;15.50;1.00;;;;;;5071229;28;20044;-39
2023/03/08 09:41:48;;;;;;;0.95;0.35;;;15.40;1.00;;;;;;5072187;28;20032;-39
2023/03/08 09:44:52;;;;;;;0.63;0.30;;;15.40;1.00;;;;;;5074678;28;20377;-39
2023/03/08 09:47:25;;;;;;;0.50;0.17;;;15.40;1.00;;;;;;5075173;28;20040;-39
2023/03/08 09:49:55;;;;;;;1.90;0.30;;;15.40;1.00;;;;;;5075094;28;20044;-39
2023/03/08 09:52:32;;;;;;;0.35;0.05;;;15.40;1.00;;;;;;5074719;28;20381;-39
2023/03/08 09:55:00;;;;;;;0.85;0.30;;;15.30;1.00;;;;;;5074534;28;20510;-39
2023/03/08 09:57:38;;;;;;;1.73;0.43;;;15.30;1.00;;;;;;5074872;28;20087;-39
2023/03/08 10:00:21;;;;;;;1.52;0.25;;;15.30;1.00;;;;;;5074767;28;20461;-38
2023/03/08 10:02:58;;;;;;;1.25;0.25;;;15.30;1.00;;;;;;5073872;28;20083;-39
2023/03/08 10:05:48;;;;;;;0.85;0.30;;;15.20;1.00;;;;;;5075184;28;20043;-39
2023/03/08 10:08:37;;;;;;;0.55;0.20;;;15.20;1.00;;;;;;5074798;28;20048;-39
2023/03/08 10:11:18;;;;;;;1.23;0.10;;;15.20;1.00;;;;;;5074852;28;20091;-39
2023/03/08 10:13:50;;;;;;;0.50;0.20;;;15.20;1.00;;;;;;5074370;28;20047;-39
2023/03/08 10:16:25;;;;;;;0.70;0.20;;;15.20;1.00;;;;;;5074845;28;20446;-40
2023/03/08 10:18:58;;;;;;;0.40;0.10;;;15.10;1.00;;;;;;5074541;28;20051;-39
2023/03/08 10:21:26;;;;;;;0.73;0.30;;;15.10;1.00;;;;;;5074873;28;20082;-38
2023/03/08 10:24:26;;;;;;;0.75;0.20;;;15.10;1.00;;;;;;5073514;28;20044;-39
2023/03/08 10:27:01;;;;;;;1.38;0.47;;;15.10;1.00;;;;;;5074446;28;20496;-39
2023/03/08 10:29:30;;;;;;;1.30;0.20;;;15.00;1.00;;;;;;5074275;28;20401;-39
2023/03/08 10:31:57;;;;;;;1.52;0.30;;;15.00;1.00;;;;;;5074293;28;20058;-39
2023/03/08 10:34:29;;;;;;;0.70;0.10;;;15.00;1.00;;;;;;5073424;28;20128;-39
2023/03/08 10:37:02;;;;;;;1.27;0.10;;;15.00;1.00;;;;;;5073942;28;20036;-38
2023/03/08 10:39:29;;;;;;;0.22;0.20;;;15.00;1.00;;;;;;5074230;28;20047;-39
2023/03/08 10:41:58;;;;;;;1.00;0.40;;;15.00;1.00;;;;;;5074159;28;20049;-39
2023/03/08 10:44:32;;;;;;;1.58;0.20;;;15.00;1.00;;;;;;5073399;28;20045;-39
2023/03/08 10:46:58;;;;;;;3.47;0.40;;;15.00;1.00;;;;;;5074083;28;20036;-39
2023/03/08 10:49:25;;;;;;;2.08;0.30;;;15.00;1.00;;;;;;5074004;28;20046;-39
2023/03/08 10:51:57;;;;;;;0.98;0.20;;;15.00;1.00;;;;;;5073737;28;20048;-38
2023/03/08 10:54:25;;;;;;;0.73;0.13;;;14.90;1.00;;;;;;5073124;28;20055;-39
2023/03/08 10:56:55;;;;;;;0.95;0.13;;;14.90;1.00;;;;;;5073891;28;20056;-39
2023/03/08 10:59:31;;;;;;;1.90;0.30;;;14.90;1.00;;;;;;5055744;28;20052;-39
2023/03/08 11:02:02;;;;;;;1.23;0.30;;;14.90;1.00;;;;;;5073661;28;20123;-39
2023/03/08 11:04:29;;;;;;;0.30;0.10;;;14.90;1.00;;;;;;5072998;28;20518;-39
2023/03/08 11:06:57;;;;;;;0.73;0.20;;;14.90;1.00;;;;;;5073578;28;20123;-38
2023/03/08 11:09:28;;;;;;;3.45;0.45;;;14.90;1.00;;;;;;5073652;28;20045;-39
2023/03/08 11:11:57;;;;;;;1.58;0.45;;;14.90;1.00;;;;;;5073460;28;20040;-39
2023/03/08 11:14:26;;;;;;;0.52;0.30;;;14.90;1.00;;;;;;5072817;28;20076;-39
2023/03/08 11:17:18;;;;;;;0.82;0.30;;;14.80;1.00;;;;;;5073558;28;20041;-39
2023/03/08 11:19:58;;;;;;;1.27;0.30;;;14.80;1.00;;;;;;5073365;28;20052;-39
2023/03/08 11:22:54;;;;;;;1.52;0.25;;;14.80;1.00;;;;;;5073050;28;20045;-39
2023/03/08 11:25:38;;;;;;;0.60;0.17;;;14.80;1.00;;;;;;5073426;28;20066;-39
2023/03/08 11:28:05;;;;;;;0.73;0.20;;;14.80;1.00;;;;;;5073219;28;20559;-39
2023/03/08 11:30:44;;;;;;;0.70;0.15;;;14.80;1.00;;;;;;5072992;28;20044;-39
2023/03/08 11:33:30;;;;;;;1.63;0.22;;;14.70;1.00;;;;;;5072446;28;20067;-39
2023/03/08 11:36:15;;;;;;;1.30;0.32;;;14.70;1.00;;;;;;5073075;28;20048;-38
2023/03/08 11:38:50;;;;;;;0.95;0.13;;;14.70;1.00;;;;;;5072927;28;20044;-39
2023/03/08 11:41:26;;;;;;;0.22;0.10;;;14.70;1.00;;;;;;5073052;28;20115;-39
2023/03/08 11:43:53;;;;;;;1.88;0.10;;;14.70;1.00;;;;;;5072205;28;20037;-39
2023/03/08 11:46:31;;;;;;;0.73;0.50;;;14.70;1.00;;;;;;5072938;28;20048;-38
2023/03/08 11:49:10;;;;;;;0.50;0.17;;;14.70;1.00;;;;;;5072691;28;20048;-39
2023/03/08 11:51:49;;;;;;;1.13;0.15;;;14.70;1.00;;;;;;5072766;28;20048;-39
2023/03/08 11:54:41;;;;;;;0.77;0.22;;;14.70;1.00;;;;;;5071972;28;20041;-39
2023/03/08 11:57:10;;;;;;;1.75;0.73;;;14.60;1.00;;;;;;5072672;28;20033;-39
2023/03/08 11:59:48;;;;;;;0.47;0.20;;;14.60;1.00;;;;;;5072551;28;20094;-38
2023/03/08 12:02:22;;;;;;;2.53;0.40;;;14.60;1.00;;;;;;5072379;28;20045;-39
2023/03/08 12:05:08;;;;;;;3.42;0.25;;;14.60;1.00;;;;;;5071573;28;20047;-39
2023/03/08 12:07:54;;;;;;;0.95;0.15;;;14.60;1.00;;;;;;5072538;28;20048;-39
2023/03/08 12:10:48;;;;;;;1.48;0.25;;;14.60;1.00;;;;;;5072161;28;20054;-39
2023/03/08 12:13:42;;;;;;;0.80;0.20;;;14.60;1.00;;;;;;5071600;28;20097;-38
2023/03/08 12:16:25;;;;;;;0.65;0.17;;;14.60;1.00;;;;;;5072266;28;20044;-39
2023/03/08 12:19:33;;;;;;;0.73;0.30;;;14.60;1.00;;;;;;5072204;28;20040;-39
2023/03/08 12:22:34;;;;;;;0.60;0.10;;;14.60;1.00;;;;;;5032827;28;20060;-38
2023/03/08 12:25:20;;;;;;;0.40;0.10;;;14.50;1.00;;;;;;5071824;28;20038;-39
2023/03/08 12:27:49;;;;;;;2.83;0.63;;;14.50;1.00;;;;;;5072178;28;20048;-39
2023/03/08 12:30:58;;;;;;;0.38;0.30;;;14.50;1.00;;;;;;5082585;22;20056;-38
2023/03/08 12:33:27;;;;;;;1.40;0.30;;;14.50;1.00;;;;;;5062994;28;20040;-38
2023/03/08 12:36:03;;;;;;;1.38;0.20;;;14.50;1.00;;;;;;5054367;28;20060;-38
2023/03/08 12:38:30;;;;;;;0.70;0.57;;;14.50;1.00;;;;;;5054225;28;20738;-38
2023/03/08 12:40:57;;;;;;;0.65;0.20;;;14.50;1.00;;;;;;5072009;28;20450;-38
2023/03/08 12:43:27;;;;;;;0.32;0.10;;;14.50;1.00;;;;;;5071076;28;20522;-39
2023/03/08 12:46:00;;;;;;;5.13;0.30;;;14.50;1.00;;;;;;5072094;28;20585;-39
2023/03/08 12:48:43;;;;;;;0.68;0.17;;;14.50;1.00;;;;;;5071967;28;20059;-38
2023/03/08 12:51:15;;;;;;;1.80;0.27;;;14.50;1.00;;;;;;5071988;28;20044;-38
2023/03/08 12:53:50;;;;;;;2.17;0.23;;;14.50;1.00;;;;;;5071062;28;20530;-38
2023/03/08 12:56:22;;;;;;;3.20;0.43;;;14.40;1.00;;;;;;5071704;28;20048;-39
2023/03/08 12:59:15;;;;;;;1.35;0.15;;;14.40;1.00;;;;;;5071729;28;20450;-39
2023/03/08 13:01:57;;;;;;;0.40;0.13;;;14.40;1.00;;;;;;5041351;28;20052;-38
2023/03/08 13:04:27;;;;;;;0.30;0.10;;;14.40;1.00;;;;;;5053121;28;20446;-38
2023/03/08 13:07:21;;;;;;;2.08;0.22;;;14.40;1.00;;;;;;5071613;28;20047;-39
2023/03/08 13:09:50;;;;;;;0.28;0.10;;;14.40;1.00;;;;;;5071764;28;20040;-39
2023/03/08 13:12:29;;;;;;;0.73;0.22;;;14.40;1.00;;;;;;5071336;28;20094;-38
2023/03/08 13:15:12;;;;;;;1.23;0.10;;;14.40;1.00;;;;;;5071108;28;20527;-39
2023/03/08 13:17:46;;;;;;;0.57;0.20;;;14.40;1.00;;;;;;5074337;28;20046;-38
2023/03/08 13:21:11;;;;;;;1.77;0.38;;;14.40;1.00;;;;;;5075818;28;20090;-38